Terminal Aerodrome Forecast
Issued by NWS

Home | Current Version | Previous Version | Text Only | Print | Product List | Glossary On
Versions: 1 2 3 4 5 6 7 8 9 10 11 12
429
FTUS43 KEAX 200520
TAFMKC
TAF
KMKC 200520Z 2006/2106 18009KT P6SM SCT250
     FM201500 18014G24KT P6SM FEW250
     FM210000 18012G22KT P6SM SCT050=

USA.gov is the U.S. government's official web portal to all federal, state and local government web resources and services.